Four Lakes, Washington
Current Conditions -  °F | °C
As of 9:58 AM on Monday 24 Nov 2014 (Local Time) from KSKA Reporting Station
Broken Clouds Broken Clouds  
Wind Chill: 26°   Ceiling: 9000
Heat Index: 31°   Visibility: 10mi
Dew Point: 30°   Wind: 5mph
Humidity: 97%   Direction: 160°SSE
Pressure: 30.34"   Gusts: NA
Location:  47.56°N, 117.59°W
Report Text: KSKA 241758Z AUTO 16004KT 10SM BKN090 M01/M01 A3034 RMK AO2 UPB1729E1738 SLP301 P0000 60000 T10071011 11007 21038 51014 RVRNO $
Loading
Personal Weather Stations






























Interactive Weather Map New forecast layout! Learn more

10-Day Weather Forecast

Advertisements
Track Severe Weather on mobile